createdAt,value
2023-04-06T00:00:56.439Z,4.67
2023-04-06T00:05:59.091Z,4.13
2023-04-06T00:11:03.104Z,3.70
2023-04-06T00:16:07.031Z,4.37
2023-04-06T00:21:09.705Z,4.50
2023-04-06T00:26:13.676Z,3.97
2023-04-06T00:31:16.656Z,4.80
2023-04-06T00:36:19.438Z,4.10
2023-04-06T00:41:23.491Z,4.47
2023-04-06T00:46:26.283Z,4.10
2023-04-06T00:51:29.294Z,4.43
2023-04-06T00:56:33.760Z,3.93
2023-04-06T01:01:36.500Z,3.90
2023-04-06T01:06:39.185Z,4.10
2023-04-06T01:11:43.157Z,4.07
2023-04-06T01:16:45.882Z,4.10
2023-04-06T01:21:50.254Z,4.07
2023-04-06T01:26:54.238Z,3.90
2023-04-06T01:31:56.932Z,4.13
2023-04-06T01:36:59.614Z,3.93
2023-04-06T01:42:03.697Z,4.10
2023-04-06T01:47:06.501Z,4.70
2023-04-06T01:52:09.241Z,4.40
2023-04-06T01:57:13.487Z,4.33
2023-04-06T02:02:16.413Z,4.10
2023-04-06T02:07:19.069Z,4.37
2023-04-06T02:12:23.314Z,4.20
2023-04-06T02:17:26.301Z,4.40
2023-04-06T02:22:29.081Z,4.83
2023-04-06T02:27:33.127Z,4.73
2023-04-06T02:32:36.111Z,4.87
2023-04-06T02:37:38.842Z,4.57
2023-04-06T02:42:42.870Z,5.67
2023-04-06T02:47:45.555Z,4.97
2023-04-06T02:52:48.291Z,4.87
2023-04-06T02:57:52.269Z,4.87
2023-04-06T03:02:55.004Z,4.90
2023-04-06T03:07:57.807Z,4.60
2023-04-06T03:13:01.783Z,4.97
2023-04-06T03:18:04.626Z,4.90
2023-04-06T03:23:07.337Z,4.97
2023-04-06T03:28:11.347Z,5.00
2023-04-06T03:33:14.109Z,5.53
2023-04-06T03:38:16.858Z,5.43
2023-04-06T03:43:20.888Z,4.70
2023-04-06T03:48:23.574Z,5.07
2023-04-06T03:53:26.239Z,12.37
2023-04-06T03:58:30.241Z,18.07
2023-04-06T04:03:33.079Z,8.40
2023-04-06T04:08:36.418Z,16.90
2023-04-06T04:13:40.404Z,13.73
2023-04-06T04:18:44.528Z,6.03
2023-04-06T04:23:47.343Z,5.53
2023-04-06T04:28:51.366Z,5.33
2023-04-06T04:33:54.032Z,5.47
2023-04-06T04:38:56.901Z,5.47
2023-04-06T04:44:00.936Z,6.67
2023-04-06T04:49:03.608Z,6.30
2023-04-06T04:54:06.540Z,6.47
2023-04-06T04:59:10.802Z,5.60
2023-04-06T05:04:13.601Z,6.07
2023-04-06T05:09:16.286Z,6.17
2023-04-06T05:14:21.056Z,5.70
2023-04-06T05:19:23.781Z,6.10
2023-04-06T05:24:26.513Z,6.07
2023-04-06T05:29:30.928Z,6.20
2023-04-06T05:34:33.661Z,6.10
2023-04-06T05:39:36.507Z,5.87
2023-04-06T05:44:40.477Z,6.10
2023-04-06T05:49:43.897Z,5.67
2023-04-06T05:54:46.666Z,7.60
2023-04-06T05:59:50.629Z,5.73
2023-04-06T06:04:53.305Z,5.90
2023-04-06T06:09:58.725Z,5.47
2023-04-06T06:15:02.792Z,5.20
2023-04-06T06:20:06.419Z,5.40
2023-04-06T06:25:09.780Z,6.07
2023-04-06T06:30:14.364Z,5.57
2023-04-06T06:35:17.322Z,5.70
2023-04-06T06:40:21.010Z,4.87
2023-04-06T06:45:26.410Z,5.47
2023-04-06T06:50:29.460Z,5.93
2023-04-06T06:55:32.098Z,5.43
2023-04-06T07:00:36.126Z,5.30
2023-04-06T07:05:41.333Z,5.03
2023-04-06T07:10:44.162Z,5.10
2023-04-06T07:15:48.181Z,4.50
2023-04-06T07:20:50.838Z,4.70
2023-04-06T07:25:54.834Z,4.43
2023-04-06T07:30:58.811Z,5.10
2023-04-06T07:36:01.835Z,4.97
2023-04-06T07:41:05.035Z,4.87
2023-04-06T07:46:09.210Z,4.80
2023-04-06T07:51:15.091Z,4.60
2023-04-06T07:56:17.874Z,4.83
2023-04-06T08:01:21.980Z,4.43
2023-04-06T08:06:24.836Z,4.23
2023-04-06T08:11:28.371Z,4.57
2023-04-06T08:16:32.371Z,4.03
2023-04-06T08:21:35.305Z,4.30
2023-04-06T08:26:37.962Z,3.92
2023-04-06T08:31:42.666Z,3.70
2023-04-06T08:36:46.638Z,3.88
2023-04-06T08:41:53.214Z,3.58
2023-04-06T08:46:58.050Z,3.50
2023-04-06T08:52:02.486Z,3.00
2023-04-06T08:57:06.911Z,3.28
2023-04-06T09:02:19.019Z,3.05
2023-04-06T09:07:22.588Z,3.00
2023-04-06T09:12:26.634Z,2.90
2023-04-06T09:17:34.380Z,2.40
2023-04-06T09:22:38.528Z,2.55
2023-04-06T09:27:41.238Z,2.70
2023-04-06T10:14:12.853Z,2.17
2023-04-06T10:19:20.441Z,2.00
2023-04-06T10:24:23.362Z,2.10
2023-04-06T10:29:27.451Z,2.25
2023-04-06T10:34:37.004Z,2.20
2023-04-06T10:39:48.180Z,2.67
2023-04-06T10:44:52.483Z,2.10
2023-04-06T10:49:55.154Z,2.38
2023-04-06T10:54:58.746Z,2.60
2023-04-06T11:00:02.767Z,2.05
2023-04-06T11:05:05.981Z,2.38
2023-04-06T11:10:16.541Z,2.15
2023-04-06T11:15:22.303Z,1.85
2023-04-06T11:20:25.072Z,2.30
2023-04-06T11:25:28.687Z,2.00
2023-04-06T11:30:32.775Z,2.17
2023-04-06T11:35:36.782Z,2.25
2023-04-06T11:40:39.536Z,2.65
2023-04-06T11:45:44.101Z,2.08
2023-04-06T11:50:48.642Z,2.45
2023-04-06T11:55:51.429Z,2.40
2023-04-06T12:00:55.459Z,2.60
2023-04-06T12:05:59.707Z,2.45
2023-04-06T12:11:03.468Z,2.20
2023-04-06T12:16:07.876Z,2.17
2023-04-06T12:21:10.872Z,2.20
2023-04-06T12:26:13.598Z,2.33
2023-04-06T12:31:22.430Z,1.77
2023-04-06T12:36:25.921Z,2.08
2023-04-06T12:41:29.625Z,1.73
2023-04-06T12:46:33.701Z,1.60
2023-04-06T12:51:36.537Z,1.75
2023-04-06T12:56:39.227Z,1.63
2023-04-06T13:01:43.201Z,2.30
2023-04-06T13:06:45.906Z,2.20
2023-04-06T13:11:48.662Z,2.20
2023-04-06T13:16:52.884Z,2.85
2023-04-06T13:21:55.749Z,2.45
2023-04-06T13:26:58.588Z,2.40
2023-04-06T13:32:02.793Z,2.95
2023-04-06T13:37:05.652Z,2.25
2023-04-06T13:42:08.619Z,2.50
2023-04-06T13:47:13.317Z,2.10
2023-04-06T13:52:16.373Z,1.98
2023-04-06T13:57:19.067Z,2.03
2023-04-06T14:02:28.232Z,2.15
2023-04-06T14:07:31.391Z,2.20
2023-04-06T14:12:34.065Z,3.05
2023-04-06T14:17:38.302Z,2.40
2023-04-06T14:22:42.044Z,2.70
2023-04-06T14:27:45.252Z,2.50
2023-04-06T14:32:49.353Z,2.25
2023-04-06T14:37:52.467Z,2.42
2023-04-06T14:42:56.704Z,2.28
2023-04-06T14:48:00.767Z,2.10
2023-04-06T14:53:03.439Z,2.60
2023-04-06T14:58:06.228Z,2.40
2023-04-06T15:03:10.533Z,2.13
2023-04-06T15:08:15.985Z,2.30
2023-04-06T15:13:18.953Z,2.42
2023-04-06T15:18:22.972Z,2.00
2023-04-06T15:23:25.991Z,2.25
2023-04-06T15:28:29.417Z,2.42
2023-04-06T15:33:33.596Z,2.10
2023-04-06T15:38:37.738Z,2.17
2023-04-06T15:43:40.675Z,2.40
2023-04-06T15:48:44.924Z,2.60
2023-04-06T15:53:47.778Z,2.20
2023-04-06T15:58:50.546Z,2.40
2023-04-06T16:03:54.872Z,2.67
2023-04-06T16:08:57.581Z,2.15
2023-04-06T16:14:00.956Z,2.13
2023-04-06T16:19:05.152Z,2.40
2023-04-06T16:24:08.567Z,2.15
2023-04-06T16:29:11.420Z,2.15
2023-04-06T16:34:15.551Z,2.30
2023-04-06T16:39:18.229Z,2.10
2023-04-06T16:44:21.596Z,2.40
2023-04-06T16:49:25.706Z,2.25
2023-04-06T16:54:28.455Z,2.17
2023-04-06T16:59:31.627Z,2.30
2023-04-06T17:04:37.537Z,2.10
2023-04-06T17:09:42.667Z,3.00
2023-04-06T17:14:45.529Z,2.55
2023-04-06T17:19:49.531Z,2.50
2023-04-06T17:24:52.229Z,2.10
2023-04-06T17:30:00.079Z,2.23
2023-04-06T17:35:04.420Z,2.47
2023-04-06T17:40:08.428Z,2.60
2023-04-06T17:45:13.766Z,3.07
2023-04-06T17:50:17.900Z,3.33
2023-04-06T17:55:22.400Z,2.80
2023-04-06T18:00:25.689Z,3.53
2023-04-06T18:05:32.759Z,3.20
2023-04-06T18:10:38.400Z,3.20
2023-04-06T18:15:41.205Z,3.07
2023-04-06T18:20:45.319Z,3.50
2023-04-06T18:25:48.060Z,3.30
2023-04-06T18:30:50.838Z,3.20
2023-04-06T18:35:56.512Z,3.70
2023-04-06T18:40:59.539Z,3.53
2023-04-06T18:46:02.242Z,3.27
2023-04-06T18:51:06.451Z,3.17
2023-04-06T18:56:16.438Z,3.60
2023-04-06T19:01:23.417Z,3.80
2023-04-06T19:06:28.121Z,3.83
2023-04-06T19:11:32.337Z,4.17
2023-04-06T19:16:40.794Z,3.83
2023-04-06T19:21:44.847Z,5.07
2023-04-06T19:26:47.622Z,3.97
2023-04-06T19:31:53.219Z,4.33
2023-04-06T19:36:57.308Z,4.93
2023-04-06T19:41:59.933Z,4.90
2023-04-06T19:47:05.014Z,5.40
2023-04-06T19:52:09.980Z,6.33
2023-04-06T19:57:12.681Z,6.40
2023-04-06T20:02:15.794Z,7.27
2023-04-06T20:07:19.898Z,7.43
2023-04-06T20:12:22.606Z,6.40
2023-04-06T20:17:25.677Z,6.67
2023-04-06T20:22:29.701Z,6.60
2023-04-06T20:27:32.506Z,6.27
2023-04-06T20:32:35.280Z,7.37
2023-04-06T20:37:39.376Z,6.77
2023-04-06T20:42:42.511Z,7.03
2023-04-06T20:47:45.978Z,6.90
2023-04-06T20:52:50.323Z,7.63
2023-04-06T20:57:53.038Z,7.80
2023-04-06T21:02:56.057Z,9.30
2023-04-06T21:08:00.315Z,9.23
2023-04-06T21:13:03.010Z,9.70
2023-04-06T21:18:06.072Z,9.13
2023-04-06T21:23:10.154Z,8.73
2023-04-06T21:28:12.821Z,8.37
2023-04-06T21:33:15.559Z,8.63
2023-04-06T21:38:19.667Z,8.63
2023-04-06T21:43:22.474Z,8.33
2023-04-06T21:48:25.217Z,8.23
2023-04-06T21:53:29.211Z,9.87
2023-04-06T21:58:31.852Z,10.30
2023-04-06T22:03:34.670Z,9.80
2023-04-06T22:08:39.089Z,10.10
2023-04-06T22:13:42.178Z,9.90
2023-04-06T22:18:44.836Z,9.23
2023-04-06T22:23:48.849Z,9.03
2023-04-06T22:53:52.270Z,9.23
2023-04-06T23:11:55.541Z,8.43
2023-04-06T23:17:53.214Z,8.20
2023-04-06T23:29:35.152Z,8.20
2023-04-06T23:47:22.606Z,8.03
